sensor_id;sensor_type;location;lat;lon;timestamp;temperature;humidity
3942;DHT22;1985;48.592;8.850;2024-03-23T00:53:37;10.40;99.90
3942;DHT22;1985;48.592;8.850;2024-03-23T00:56:03;10.40;99.90
3942;DHT22;1985;48.592;8.850;2024-03-23T00:58:29;10.50;99.90
3942;DHT22;1985;48.592;8.850;2024-03-23T01:00:54;10.50;99.90
3942;DHT22;1985;48.592;8.850;2024-03-23T01:03:20;10.50;99.90
3942;DHT22;1985;48.592;8.850;2024-03-23T01:05:46;10.50;99.90
3942;DHT22;1985;48.592;8.850;2024-03-23T01:08:11;10.50;99.90
3942;DHT22;1985;48.592;8.850;2024-03-23T01:10:37;10.50;99.90
3942;DHT22;1985;48.592;8.850;2024-03-23T01:13:03;10.60;99.90
3942;DHT22;1985;48.592;8.850;2024-03-23T01:15:28;10.50;99.90
3942;DHT22;1985;48.592;8.850;2024-03-23T01:17:54;10.50;99.90
3942;DHT22;1985;48.592;8.850;2024-03-23T01:20:20;10.50;99.90
3942;DHT22;1985;48.592;8.850;2024-03-23T01:22:45;10.50;99.90
3942;DHT22;1985;48.592;8.850;2024-03-23T01:25:11;10.60;99.90
3942;DHT22;1985;48.592;8.850;2024-03-23T01:27:37;10.70;99.90
3942;DHT22;1985;48.592;8.850;2024-03-23T01:30:03;10.70;99.90
3942;DHT22;1985;48.592;8.850;2024-03-23T01:32:28;10.70;99.90
3942;DHT22;1985;48.592;8.850;2024-03-23T01:34:54;10.60;99.90
3942;DHT22;1985;48.592;8.850;2024-03-23T01:37:20;10.70;99.90
3942;DHT22;1985;48.592;8.850;2024-03-23T01:39:45;10.70;99.90
3942;DHT22;1985;48.592;8.850;2024-03-23T01:42:11;10.70;99.90
3942;DHT22;1985;48.592;8.850;2024-03-23T01:44:36;10.60;99.90
3942;DHT22;1985;48.592;8.850;2024-03-23T01:47:03;10.70;99.90
3942;DHT22;1985;48.592;8.850;2024-03-23T01:49:29;10.70;99.90
3942;DHT22;1985;48.592;8.850;2024-03-23T01:51:55;10.70;99.90
3942;DHT22;1985;48.592;8.850;2024-03-23T01:54:21;10.70;99.90
3942;DHT22;1985;48.592;8.850;2024-03-23T01:56:47;10.80;99.90
3942;DHT22;1985;48.592;8.850;2024-03-23T01:59:14;10.80;99.90
3942;DHT22;1985;48.592;8.850;2024-03-23T02:01:40;10.70;99.90
3942;DHT22;1985;48.592;8.850;2024-03-23T02:04:06;10.70;99.90
3942;DHT22;1985;48.592;8.850;2024-03-23T02:06:33;10.70;99.90
3942;DHT22;1985;48.592;8.850;2024-03-23T02:08:59;10.70;99.90
3942;DHT22;1985;48.592;8.850;2024-03-23T02:11:25;10.60;99.90
3942;DHT22;1985;48.592;8.850;2024-03-23T02:13:51;10.70;99.90
3942;DHT22;1985;48.592;8.850;2024-03-23T02:16:17;10.60;99.90
3942;DHT22;1985;48.592;8.850;2024-03-23T02:18:42;10.60;99.90
3942;DHT22;1985;48.592;8.850;2024-03-23T02:21:08;10.60;99.90
3942;DHT22;1985;48.592;8.850;2024-03-23T02:23:33;10.60;99.90
3942;DHT22;1985;48.592;8.850;2024-03-23T02:25:59;10.50;99.90
3942;DHT22;1985;48.592;8.850;2024-03-23T02:28:25;10.50;99.90
3942;DHT22;1985;48.592;8.850;2024-03-23T02:30:51;10.50;99.90
3942;DHT22;1985;48.592;8.850;2024-03-23T02:33:17;10.50;99.90
3942;DHT22;1985;48.592;8.850;2024-03-23T02:35:44;10.60;99.90
3942;DHT22;1985;48.592;8.850;2024-03-23T02:38:10;10.50;99.90
3942;DHT22;1985;48.592;8.850;2024-03-23T02:40:36;10.50;99.90
3942;DHT22;1985;48.592;8.850;2024-03-23T02:43:03;10.50;99.90
3942;DHT22;1985;48.592;8.850;2024-03-23T02:45:29;10.50;99.90
3942;DHT22;1985;48.592;8.850;2024-03-23T02:47:54;10.40;99.90
3942;DHT22;1985;48.592;8.850;2024-03-23T02:50:21;10.40;99.90
3942;DHT22;1985;48.592;8.850;2024-03-23T02:52:47;10.30;99.90
3942;DHT22;1985;48.592;8.850;2024-03-23T02:55:13;10.30;99.90
3942;DHT22;1985;48.592;8.850;2024-03-23T02:57:38;10.20;99.90
3942;DHT22;1985;48.592;8.850;2024-03-23T03:00:04;10.10;99.90
3942;DHT22;1985;48.592;8.850;2024-03-23T03:02:31;10.10;99.90
3942;DHT22;1985;48.592;8.850;2024-03-23T03:04:57;10.00;99.90
3942;DHT22;1985;48.592;8.850;2024-03-23T03:07:23;10.00;99.90
3942;DHT22;1985;48.592;8.850;2024-03-23T03:09:49;9.90;99.90
3942;DHT22;1985;48.592;8.850;2024-03-23T03:12:14;9.80;99.90
3942;DHT22;1985;48.592;8.850;2024-03-23T03:14:40;9.70;99.90
3942;DHT22;1985;48.592;8.850;2024-03-23T03:17:05;9.70;99.90
3942;DHT22;1985;48.592;8.850;2024-03-23T03:19:31;9.70;99.90
3942;DHT22;1985;48.592;8.850;2024-03-23T03:21:57;9.70;99.90
3942;DHT22;1985;48.592;8.850;2024-03-23T03:24:23;9.60;99.90
3942;DHT22;1985;48.592;8.850;2024-03-23T03:26:49;9.70;99.90
3942;DHT22;1985;48.592;8.850;2024-03-23T03:29:15;9.70;99.90
3942;DHT22;1985;48.592;8.850;2024-03-23T03:31:41;9.70;99.90
3942;DHT22;1985;48.592;8.850;2024-03-23T03:34:07;9.70;99.90
3942;DHT22;1985;48.592;8.850;2024-03-23T03:36:33;9.70;99.90
3942;DHT22;1985;48.592;8.850;2024-03-23T03:38:58;9.80;99.90
3942;DHT22;1985;48.592;8.850;2024-03-23T03:41:24;9.80;99.90
3942;DHT22;1985;48.592;8.850;2024-03-23T03:43:50;9.90;99.90
3942;DHT22;1985;48.592;8.850;2024-03-23T03:46:15;10.00;99.90
3942;DHT22;1985;48.592;8.850;2024-03-23T03:48:41;10.00;99.90
3942;DHT22;1985;48.592;8.850;2024-03-23T03:51:07;10.00;99.90
3942;DHT22;1985;48.592;8.850;2024-03-23T03:53:32;10.10;99.90
3942;DHT22;1985;48.592;8.850;2024-03-23T03:56:01;10.00;99.90
3942;DHT22;1985;48.592;8.850;2024-03-23T03:58:27;10.00;99.90
3942;DHT22;1985;48.592;8.850;2024-03-23T04:00:53;10.00;99.90
3942;DHT22;1985;48.592;8.850;2024-03-23T04:03:19;9.90;99.90
3942;DHT22;1985;48.592;8.850;2024-03-23T04:05:53;9.90;99.90
3942;DHT22;1985;48.592;8.850;2024-03-23T04:08:19;10.00;99.90
3942;DHT22;1985;48.592;8.850;2024-03-23T04:10:45;10.00;99.90
3942;DHT22;1985;48.592;8.850;2024-03-23T04:13:11;9.90;99.90
3942;DHT22;1985;48.592;8.850;2024-03-23T04:15:37;10.00;99.90
3942;DHT22;1985;48.592;8.850;2024-03-23T04:18:02;10.00;99.90
3942;DHT22;1985;48.592;8.850;2024-03-23T04:20:28;10.00;99.90
3942;DHT22;1985;48.592;8.850;2024-03-23T04:22:54;10.00;99.90
3942;DHT22;1985;48.592;8.850;2024-03-23T04:25:19;10.10;99.90
3942;DHT22;1985;48.592;8.850;2024-03-23T04:27:45;10.00;99.90
3942;DHT22;1985;48.592;8.850;2024-03-23T04:30:12;10.00;99.90
3942;DHT22;1985;48.592;8.850;2024-03-23T04:32:38;10.10;99.90
3942;DHT22;1985;48.592;8.850;2024-03-23T04:35:04;10.10;99.90
3942;DHT22;1985;48.592;8.850;2024-03-23T04:37:37;10.20;99.90
3942;DHT22;1985;48.592;8.850;2024-03-23T04:40:06;10.20;99.90
3942;DHT22;1985;48.592;8.850;2024-03-23T04:42:33;10.30;99.90
3942;DHT22;1985;48.592;8.850;2024-03-23T04:44:58;10.30;99.90
3942;DHT22;1985;48.592;8.850;2024-03-23T04:47:24;9.70;99.90
3942;DHT22;1985;48.592;8.850;2024-03-23T04:49:50;9.30;99.90
3942;DHT22;1985;48.592;8.850;2024-03-23T04:52:16;9.20;99.90
3942;DHT22;1985;48.592;8.850;2024-03-23T04:54:42;9.40;99.90
3942;DHT22;1985;48.592;8.850;2024-03-23T04:57:08;9.60;99.90
3942;DHT22;1985;48.592;8.850;2024-03-23T04:59:34;9.80;99.90
3942;DHT22;1985;48.592;8.850;2024-03-23T05:01:59;9.80;99.90
3942;DHT22;1985;48.592;8.850;2024-03-23T05:04:25;9.90;99.90
3942;DHT22;1985;48.592;8.850;2024-03-23T05:06:51;9.80;99.90
3942;DHT22;1985;48.592;8.850;2024-03-23T05:09:17;9.90;99.90
3942;DHT22;1985;48.592;8.850;2024-03-23T05:11:42;9.90;99.90
3942;DHT22;1985;48.592;8.850;2024-03-23T05:14:08;9.90;99.90
3942;DHT22;1985;48.592;8.850;2024-03-23T05:16:34;10.00;99.90
3942;DHT22;1985;48.592;8.850;2024-03-23T05:19:00;9.90;99.90
3942;DHT22;1985;48.592;8.850;2024-03-23T05:21:26;9.90;99.90
3942;DHT22;1985;48.592;8.850;2024-03-23T05:23:54;9.90;99.90
3942;DHT22;1985;48.592;8.850;2024-03-23T05:26:19;9.80;99.90
3942;DHT22;1985;48.592;8.850;2024-03-23T05:28:45;9.80;99.90
3942;DHT22;1985;48.592;8.850;2024-03-23T05:31:11;9.70;99.90
3942;DHT22;1985;48.592;8.850;2024-03-23T05:33:37;9.50;99.90
3942;DHT22;1985;48.592;8.850;2024-03-23T05:36:05;9.40;99.90
3942;DHT22;1985;48.592;8.850;2024-03-23T05:38:34;9.20;99.90
3942;DHT22;1985;48.592;8.850;2024-03-23T05:41:00;9.10;99.90
3942;DHT22;1985;48.592;8.850;2024-03-23T05:43:26;9.00;99.90
3942;DHT22;1985;48.592;8.850;2024-03-23T05:48:20;9.00;99.90
3942;DHT22;1985;48.592;8.850;2024-03-23T05:50:46;9.10;99.90
3942;DHT22;1985;48.592;8.850;2024-03-23T05:53:12;8.90;99.90
3942;DHT22;1985;48.592;8.850;2024-03-23T05:55:38;8.80;99.90
3942;DHT22;1985;48.592;8.850;2024-03-23T05:58:04;8.90;99.90
3942;DHT22;1985;48.592;8.850;2024-03-23T06:00:29;8.80;99.90
3942;DHT22;1985;48.592;8.850;2024-03-23T06:02:55;8.80;99.90
3942;DHT22;1985;48.592;8.850;2024-03-23T06:05:20;8.80;99.90
3942;DHT22;1985;48.592;8.850;2024-03-23T06:07:46;8.50;99.90
3942;DHT22;1985;48.592;8.850;2024-03-23T06:10:12;8.40;99.90
3942;DHT22;1985;48.592;8.850;2024-03-23T06:12:37;8.30;99.90
3942;DHT22;1985;48.592;8.850;2024-03-23T06:15:03;8.10;99.90
3942;DHT22;1985;48.592;8.850;2024-03-23T06:17:29;8.10;99.90
3942;DHT22;1985;48.592;8.850;2024-03-23T06:19:55;8.10;99.90
3942;DHT22;1985;48.592;8.850;2024-03-23T06:22:20;8.00;99.90
3942;DHT22;1985;48.592;8.850;2024-03-23T06:24:46;7.90;99.90
3942;DHT22;1985;48.592;8.850;2024-03-23T06:27:11;7.80;99.90
3942;DHT22;1985;48.592;8.850;2024-03-23T06:29:37;7.80;99.90
3942;DHT22;1985;48.592;8.850;2024-03-23T06:32:03;7.70;99.90
3942;DHT22;1985;48.592;8.850;2024-03-23T06:34:29;7.80;99.90
3942;DHT22;1985;48.592;8.850;2024-03-23T06:36:54;7.90;99.90
3942;DHT22;1985;48.592;8.850;2024-03-23T06:39:20;8.00;99.90
3942;DHT22;1985;48.592;8.850;2024-03-23T06:41:52;7.90;99.90
3942;DHT22;1985;48.592;8.850;2024-03-23T06:44:19;7.90;99.90
3942;DHT22;1985;48.592;8.850;2024-03-23T06:46:45;7.80;99.90
3942;DHT22;1985;48.592;8.850;2024-03-23T06:49:11;7.80;99.90
3942;DHT22;1985;48.592;8.850;2024-03-23T06:51:37;7.90;99.90
3942;DHT22;1985;48.592;8.850;2024-03-23T06:54:04;8.00;99.90
3942;DHT22;1985;48.592;8.850;2024-03-23T06:56:30;8.10;99.90
3942;DHT22;1985;48.592;8.850;2024-03-23T06:58:57;8.10;99.90
3942;DHT22;1985;48.592;8.850;2024-03-23T07:01:22;8.20;99.90
3942;DHT22;1985;48.592;8.850;2024-03-23T07:03:48;8.20;99.90
3942;DHT22;1985;48.592;8.850;2024-03-23T07:06:14;8.20;99.90
3942;DHT22;1985;48.592;8.850;2024-03-23T07:08:39;8.20;99.90
3942;DHT22;1985;48.592;8.850;2024-03-23T07:11:05;8.20;99.90
3942;DHT22;1985;48.592;8.850;2024-03-23T07:13:31;8.30;99.90
3942;DHT22;1985;48.592;8.850;2024-03-23T07:15:57;8.50;99.90
3942;DHT22;1985;48.592;8.850;2024-03-23T07:18:23;8.30;99.90
3942;DHT22;1985;48.592;8.850;2024-03-23T07:20:56;8.60;99.90
3942;DHT22;1985;48.592;8.850;2024-03-23T07:23:22;8.70;99.90
3942;DHT22;1985;48.592;8.850;2024-03-23T07:26:01;8.50;99.90
3942;DHT22;1985;48.592;8.850;2024-03-23T07:28:28;8.50;99.90
3942;DHT22;1985;48.592;8.850;2024-03-23T07:31:11;8.80;99.90
3942;DHT22;1985;48.592;8.850;2024-03-23T07:33:41;9.00;99.90
3942;DHT22;1985;48.592;8.850;2024-03-23T07:36:06;9.10;99.90
3942;DHT22;1985;48.592;8.850;2024-03-23T07:38:32;9.20;99.90
3942;DHT22;1985;48.592;8.850;2024-03-23T07:41:08;9.10;99.90
3942;DHT22;1985;48.592;8.850;2024-03-23T07:43:34;9.10;99.90
3942;DHT22;1985;48.592;8.850;2024-03-23T07:46:01;9.30;99.90
3942;DHT22;1985;48.592;8.850;2024-03-23T07:48:28;9.30;99.90
3942;DHT22;1985;48.592;8.850;2024-03-23T07:51:05;9.30;99.90
3942;DHT22;1985;48.592;8.850;2024-03-23T07:53:35;8.90;99.90
3942;DHT22;1985;48.592;8.850;2024-03-23T07:56:05;8.20;99.90
3942;DHT22;1985;48.592;8.850;2024-03-23T07:58:31;8.10;99.90
3942;DHT22;1985;48.592;8.850;2024-03-23T08:01:04;7.70;99.90
3942;DHT22;1985;48.592;8.850;2024-03-23T08:03:30;7.90;99.90
3942;DHT22;1985;48.592;8.850;2024-03-23T08:05:56;8.00;99.90
3942;DHT22;1985;48.592;8.850;2024-03-23T08:08:22;8.00;99.90
3942;DHT22;1985;48.592;8.850;2024-03-23T08:10:52;7.90;99.90
3942;DHT22;1985;48.592;8.850;2024-03-23T08:13:21;7.70;99.90
3942;DHT22;1985;48.592;8.850;2024-03-23T08:15:47;7.70;99.90
3942;DHT22;1985;48.592;8.850;2024-03-23T08:18:13;7.70;99.90
3942;DHT22;1985;48.592;8.850;2024-03-23T08:20:41;7.80;99.90
3942;DHT22;1985;48.592;8.850;2024-03-23T08:23:07;7.90;99.90
3942;DHT22;1985;48.592;8.850;2024-03-23T08:25:33;7.80;99.90
3942;DHT22;1985;48.592;8.850;2024-03-23T08:27:59;8.10;99.90
3942;DHT22;1985;48.592;8.850;2024-03-23T08:30:25;8.40;99.90
3942;DHT22;1985;48.592;8.850;2024-03-23T08:32:51;8.80;99.90
3942;DHT22;1985;48.592;8.850;2024-03-23T08:35:17;8.80;99.90
3942;DHT22;1985;48.592;8.850;2024-03-23T08:37:42;8.50;99.90
3942;DHT22;1985;48.592;8.850;2024-03-23T08:40:08;8.50;99.90
3942;DHT22;1985;48.592;8.850;2024-03-23T08:42:34;8.70;99.90
3942;DHT22;1985;48.592;8.850;2024-03-23T08:45:00;8.90;99.90
3942;DHT22;1985;48.592;8.850;2024-03-23T08:47:26;9.00;99.90
3942;DHT22;1985;48.592;8.850;2024-03-23T08:49:52;9.00;99.90
3942;DHT22;1985;48.592;8.850;2024-03-23T08:52:18;8.70;99.90
3942;DHT22;1985;48.592;8.850;2024-03-23T08:54:43;8.70;99.90
3942;DHT22;1985;48.592;8.850;2024-03-23T08:57:09;8.60;99.90
3942;DHT22;1985;48.592;8.850;2024-03-23T08:59:35;8.70;99.90
3942;DHT22;1985;48.592;8.850;2024-03-23T09:02:00;8.50;99.90
3942;DHT22;1985;48.592;8.850;2024-03-23T09:04:26;8.80;99.90
3942;DHT22;1985;48.592;8.850;2024-03-23T09:06:52;8.70;99.90
3942;DHT22;1985;48.592;8.850;2024-03-23T09:09:17;8.60;99.90
3942;DHT22;1985;48.592;8.850;2024-03-23T09:11:45;8.80;99.90
3942;DHT22;1985;48.592;8.850;2024-03-23T09:14:11;9.10;99.90
3942;DHT22;1985;48.592;8.850;2024-03-23T09:16:36;9.30;99.90
3942;DHT22;1985;48.592;8.850;2024-03-23T09:19:02;9.50;99.90
3942;DHT22;1985;48.592;8.850;2024-03-23T09:21:28;9.50;99.90
3942;DHT22;1985;48.592;8.850;2024-03-23T09:23:54;9.20;99.90
3942;DHT22;1985;48.592;8.850;2024-03-23T09:26:20;9.00;99.90
3942;DHT22;1985;48.592;8.850;2024-03-23T09:28:48;8.90;99.90
3942;DHT22;1985;48.592;8.850;2024-03-23T09:31:14;9.00;99.90
3942;DHT22;1985;48.592;8.850;2024-03-23T09:33:40;8.00;99.90
3942;DHT22;1985;48.592;8.850;2024-03-23T09:36:07;6.90;99.90
3942;DHT22;1985;48.592;8.850;2024-03-23T09:38:33;7.00;99.90
3942;DHT22;1985;48.592;8.850;2024-03-23T09:40:59;6.90;99.90
3942;DHT22;1985;48.592;8.850;2024-03-23T09:43:25;6.70;99.90
3942;DHT22;1985;48.592;8.850;2024-03-23T09:45:51;6.60;99.90
3942;DHT22;1985;48.592;8.850;2024-03-23T09:48:17;6.70;99.90
3942;DHT22;1985;48.592;8.850;2024-03-23T09:50:44;7.00;99.90
3942;DHT22;1985;48.592;8.850;2024-03-23T09:53:12;7.20;99.90
3942;DHT22;1985;48.592;8.850;2024-03-23T09:55:39;7.30;99.90
3942;DHT22;1985;48.592;8.850;2024-03-23T09:58:05;7.30;99.90
3942;DHT22;1985;48.592;8.850;2024-03-23T10:00:35;7.20;99.90
3942;DHT22;1985;48.592;8.850;2024-03-23T10:03:01;7.20;99.90
3942;DHT22;1985;48.592;8.850;2024-03-23T10:05:30;7.70;99.90
3942;DHT22;1985;48.592;8.850;2024-03-23T10:08:00;8.30;99.90
3942;DHT22;1985;48.592;8.850;2024-03-23T10:10:42;9.20;99.90
3942;DHT22;1985;48.592;8.850;2024-03-23T10:13:08;10.10;99.90
3942;DHT22;1985;48.592;8.850;2024-03-23T10:15:36;10.80;99.90
3942;DHT22;1985;48.592;8.850;2024-03-23T10:18:20;11.30;99.90
3942;DHT22;1985;48.592;8.850;2024-03-23T10:21:08;11.80;99.90
3942;DHT22;1985;48.592;8.850;2024-03-23T10:23:39;12.00;99.90
3942;DHT22;1985;48.592;8.850;2024-03-23T10:26:16;11.70;99.90
3942;DHT22;1985;48.592;8.850;2024-03-23T10:28:57;10.90;99.90
3942;DHT22;1985;48.592;8.850;2024-03-23T10:31:26;10.10;99.90
3942;DHT22;1985;48.592;8.850;2024-03-23T10:33:52;9.70;99.90
3942;DHT22;1985;48.592;8.850;2024-03-23T10:36:23;9.30;99.90
3942;DHT22;1985;48.592;8.850;2024-03-23T10:38:50;8.60;99.90
3942;DHT22;1985;48.592;8.850;2024-03-23T10:41:17;7.80;99.90
3942;DHT22;1985;48.592;8.850;2024-03-23T10:43:46;6.70;99.90
3942;DHT22;1985;48.592;8.850;2024-03-23T10:46:11;6.30;99.90
3942;DHT22;1985;48.592;8.850;2024-03-23T10:48:37;6.80;99.90
3942;DHT22;1985;48.592;8.850;2024-03-23T10:51:04;7.30;99.90
3942;DHT22;1985;48.592;8.850;2024-03-23T10:53:32;8.40;99.90
3942;DHT22;1985;48.592;8.850;2024-03-23T10:55:59;8.10;99.90
3942;DHT22;1985;48.592;8.850;2024-03-23T10:58:38;9.30;99.90
3942;DHT22;1985;48.592;8.850;2024-03-23T11:01:04;9.80;99.90
3942;DHT22;1985;48.592;8.850;2024-03-23T11:03:37;9.10;99.90
3942;DHT22;1985;48.592;8.850;2024-03-23T11:06:04;8.70;99.90
3942;DHT22;1985;48.592;8.850;2024-03-23T11:08:34;8.80;99.90
3942;DHT22;1985;48.592;8.850;2024-03-23T11:11:19;8.70;99.90
3942;DHT22;1985;48.592;8.850;2024-03-23T11:13:49;8.80;99.90
3942;DHT22;1985;48.592;8.850;2024-03-23T11:16:26;8.80;99.90
3942;DHT22;1985;48.592;8.850;2024-03-23T11:21:59;10.00;99.90
3942;DHT22;1985;48.592;8.850;2024-03-23T11:24:25;10.00;99.90
3942;DHT22;1985;48.592;8.850;2024-03-23T11:26:51;10.20;99.90
3942;DHT22;1985;48.592;8.850;2024-03-23T11:29:17;9.30;99.90
3942;DHT22;1985;48.592;8.850;2024-03-23T11:31:51;9.50;99.90
3942;DHT22;1985;48.592;8.850;2024-03-23T11:34:17;8.90;99.90
3942;DHT22;1985;48.592;8.850;2024-03-23T11:36:43;8.50;99.90
3942;DHT22;1985;48.592;8.850;2024-03-23T11:39:16;8.70;99.90
3942;DHT22;1985;48.592;8.850;2024-03-23T11:41:56;8.50;99.90
3942;DHT22;1985;48.592;8.850;2024-03-23T11:44:24;8.20;99.90
3942;DHT22;1985;48.592;8.850;2024-03-23T11:46:51;8.60;99.90
3942;DHT22;1985;48.592;8.850;2024-03-23T11:49:27;9.50;99.90
3942;DHT22;1985;48.592;8.850;2024-03-23T11:51:55;11.10;99.90
3942;DHT22;1985;48.592;8.850;2024-03-23T11:54:26;11.40;98.20
3942;DHT22;1985;48.592;8.850;2024-03-23T11:59:40;10.50;97.80
3942;DHT22;1985;48.592;8.850;2024-03-23T12:04:33;12.10;96.80
3942;DHT22;1985;48.592;8.850;2024-03-23T12:09:35;11.10;94.50
3942;DHT22;1985;48.592;8.850;2024-03-23T12:14:33;10.00;97.60
3942;DHT22;1985;48.592;8.850;2024-03-23T12:17:11;10.00;99.10
3942;DHT22;1985;48.592;8.850;2024-03-23T12:19:37;10.10;99.90
3942;DHT22;1985;48.592;8.850;2024-03-23T12:22:06;9.90;99.90
3942;DHT22;1985;48.592;8.850;2024-03-23T12:24:32;9.70;99.90
3942;DHT22;1985;48.592;8.850;2024-03-23T12:27:03;9.20;99.90
3942;DHT22;1985;48.592;8.850;2024-03-23T12:29:29;9.40;99.90
3942;DHT22;1985;48.592;8.850;2024-03-23T12:32:02;10.40;99.90
3942;DHT22;1985;48.592;8.850;2024-03-23T12:34:28;10.40;98.10
3942;DHT22;1985;48.592;8.850;2024-03-23T12:36:55;10.50;99.00
3942;DHT22;1985;48.592;8.850;2024-03-23T12:39:21;10.50;98.80
3942;DHT22;1985;48.592;8.850;2024-03-23T12:41:47;10.10;97.80
3942;DHT22;1985;48.592;8.850;2024-03-23T12:44:13;9.60;98.50
3942;DHT22;1985;48.592;8.850;2024-03-23T12:46:43;9.70;98.30
3942;DHT22;1985;48.592;8.850;2024-03-23T12:49:10;9.70;98.70
3942;DHT22;1985;48.592;8.850;2024-03-23T12:51:35;9.00;99.60
3942;DHT22;1985;48.592;8.850;2024-03-23T12:54:01;9.50;99.30
3942;DHT22;1985;48.592;8.850;2024-03-23T12:56:27;9.30;99.60
3942;DHT22;1985;48.592;8.850;2024-03-23T12:58:56;9.60;99.90
3942;DHT22;1985;48.592;8.850;2024-03-23T13:01:23;8.50;99.90
3942;DHT22;1985;48.592;8.850;2024-03-23T13:03:50;6.40;99.90
3942;DHT22;1985;48.592;8.850;2024-03-23T13:06:16;5.20;99.90
3942;DHT22;1985;48.592;8.850;2024-03-23T13:08:47;5.50;99.90
3942;DHT22;1985;48.592;8.850;2024-03-23T13:11:13;6.00;99.90
3942;DHT22;1985;48.592;8.850;2024-03-23T13:13:41;6.20;99.90
3942;DHT22;1985;48.592;8.850;2024-03-23T13:16:07;6.60;99.90
3942;DHT22;1985;48.592;8.850;2024-03-23T13:18:33;7.20;99.90
3942;DHT22;1985;48.592;8.850;2024-03-23T13:20:59;7.50;99.90
3942;DHT22;1985;48.592;8.850;2024-03-23T13:23:25;7.90;99.90
3942;DHT22;1985;48.592;8.850;2024-03-23T13:25:52;8.20;99.90
3942;DHT22;1985;48.592;8.850;2024-03-23T13:28:22;8.50;99.90
3942;DHT22;1985;48.592;8.850;2024-03-23T13:33:17;8.30;99.90
3942;DHT22;1985;48.592;8.850;2024-03-23T13:35:50;8.20;99.90
3942;DHT22;1985;48.592;8.850;2024-03-23T13:38:16;8.00;99.90
3942;DHT22;1985;48.592;8.850;2024-03-23T13:40:58;8.10;99.90
3942;DHT22;1985;48.592;8.850;2024-03-23T13:43:26;8.70;99.90
3942;DHT22;1985;48.592;8.850;2024-03-23T13:45:58;8.80;99.90
3942;DHT22;1985;48.592;8.850;2024-03-23T13:48:26;8.70;99.90
3942;DHT22;1985;48.592;8.850;2024-03-23T13:51:02;8.30;99.90
3942;DHT22;1985;48.592;8.850;2024-03-23T13:53:28;7.90;99.90
3942;DHT22;1985;48.592;8.850;2024-03-23T13:55:54;7.60;99.90
3942;DHT22;1985;48.592;8.850;2024-03-23T13:58:20;7.50;99.90
3942;DHT22;1985;48.592;8.850;2024-03-23T14:00:45;7.20;99.90
3942;DHT22;1985;48.592;8.850;2024-03-23T14:03:12;6.70;99.90
3942;DHT22;1985;48.592;8.850;2024-03-23T14:05:38;7.00;99.90
3942;DHT22;1985;48.592;8.850;2024-03-23T14:08:13;7.50;99.90
3942;DHT22;1985;48.592;8.850;2024-03-23T14:10:42;7.90;99.90
3942;DHT22;1985;48.592;8.850;2024-03-23T14:13:08;8.30;99.90
3942;DHT22;1985;48.592;8.850;2024-03-23T14:15:34;8.70;99.90
3942;DHT22;1985;48.592;8.850;2024-03-23T14:18:02;9.20;99.90
3942;DHT22;1985;48.592;8.850;2024-03-23T14:20:28;9.50;99.90
3942;DHT22;1985;48.592;8.850;2024-03-23T14:22:53;9.90;99.90
3942;DHT22;1985;48.592;8.850;2024-03-23T14:25:19;10.20;99.90
3942;DHT22;1985;48.592;8.850;2024-03-23T14:27:46;10.20;99.90
3942;DHT22;1985;48.592;8.850;2024-03-23T14:30:12;9.20;99.90
3942;DHT22;1985;48.592;8.850;2024-03-23T14:32:39;8.70;99.90
3942;DHT22;1985;48.592;8.850;2024-03-23T14:35:05;8.40;99.90
3942;DHT22;1985;48.592;8.850;2024-03-23T14:37:39;8.20;99.90
3942;DHT22;1985;48.592;8.850;2024-03-23T14:40:05;8.00;99.90
3942;DHT22;1985;48.592;8.850;2024-03-23T14:42:32;8.00;99.90
3942;DHT22;1985;48.592;8.850;2024-03-23T14:44:58;7.60;99.90
3942;DHT22;1985;48.592;8.850;2024-03-23T14:47:24;6.90;99.90
3942;DHT22;1985;48.592;8.850;2024-03-23T14:49:50;6.60;99.90
3942;DHT22;1985;48.592;8.850;2024-03-23T14:52:19;6.40;99.90
3942;DHT22;1985;48.592;8.850;2024-03-23T14:54:46;6.60;99.90
3942;DHT22;1985;48.592;8.850;2024-03-23T14:57:12;6.20;99.90
3942;DHT22;1985;48.592;8.850;2024-03-23T14:59:38;6.10;99.90
3942;DHT22;1985;48.592;8.850;2024-03-23T15:02:04;6.50;99.90
3942;DHT22;1985;48.592;8.850;2024-03-23T15:04:30;6.90;99.90
3942;DHT22;1985;48.592;8.850;2024-03-23T15:06:56;7.30;99.90
3942;DHT22;1985;48.592;8.850;2024-03-23T15:09:22;7.70;99.90
3942;DHT22;1985;48.592;8.850;2024-03-23T15:11:47;7.90;99.90
3942;DHT22;1985;48.592;8.850;2024-03-23T15:14:13;8.00;99.90
3942;DHT22;1985;48.592;8.850;2024-03-23T15:16:39;7.80;99.90
3942;DHT22;1985;48.592;8.850;2024-03-23T15:19:04;7.90;99.90
3942;DHT22;1985;48.592;8.850;2024-03-23T15:21:33;7.90;99.90
3942;DHT22;1985;48.592;8.850;2024-03-23T15:23:59;7.80;99.90
3942;DHT22;1985;48.592;8.850;2024-03-23T15:26:25;7.70;99.90
3942;DHT22;1985;48.592;8.850;2024-03-23T15:28:50;7.40;99.90
3942;DHT22;1985;48.592;8.850;2024-03-23T15:31:35;7.40;99.90
3942;DHT22;1985;48.592;8.850;2024-03-23T15:34:01;7.30;99.90
3942;DHT22;1985;48.592;8.850;2024-03-23T15:36:27;6.80;99.90
3942;DHT22;1985;48.592;8.850;2024-03-23T15:38:52;6.40;99.90
3942;DHT22;1985;48.592;8.850;2024-03-23T15:41:20;6.10;99.90
3942;DHT22;1985;48.592;8.850;2024-03-23T15:43:48;5.90;99.90
3942;DHT22;1985;48.592;8.850;2024-03-23T15:46:14;6.00;99.90
3942;DHT22;1985;48.592;8.850;2024-03-23T15:48:41;6.00;99.90
3942;DHT22;1985;48.592;8.850;2024-03-23T15:51:11;6.10;99.90
3942;DHT22;1985;48.592;8.850;2024-03-23T15:53:37;5.90;99.90
3942;DHT22;1985;48.592;8.850;2024-03-23T15:56:03;5.70;99.90
3942;DHT22;1985;48.592;8.850;2024-03-23T15:58:30;5.60;99.90
3942;DHT22;1985;48.592;8.850;2024-03-23T16:01:07;5.60;99.90
3942;DHT22;1985;48.592;8.850;2024-03-23T16:03:36;5.50;99.90
3942;DHT22;1985;48.592;8.850;2024-03-23T16:06:03;5.40;99.90
3942;DHT22;1985;48.592;8.850;2024-03-23T16:08:30;5.50;99.90
3942;DHT22;1985;48.592;8.850;2024-03-23T16:11:00;5.50;99.90
3942;DHT22;1985;48.592;8.850;2024-03-23T16:13:26;5.50;99.90
3942;DHT22;1985;48.592;8.850;2024-03-23T16:18:23;5.60;99.90
3942;DHT22;1985;48.592;8.850;2024-03-23T16:20:56;5.70;99.90
3942;DHT22;1985;48.592;8.850;2024-03-23T16:23:22;5.80;99.90
3942;DHT22;1985;48.592;8.850;2024-03-23T16:25:53;5.80;99.90
3942;DHT22;1985;48.592;8.850;2024-03-23T16:28:32;5.80;99.90
3942;DHT22;1985;48.592;8.850;2024-03-23T16:31:06;5.80;99.90
3942;DHT22;1985;48.592;8.850;2024-03-23T16:33:33;5.70;99.90
3942;DHT22;1985;48.592;8.850;2024-03-23T16:36:00;5.70;99.90
3942;DHT22;1985;48.592;8.850;2024-03-23T16:38:26;5.80;99.90
3942;DHT22;1985;48.592;8.850;2024-03-23T16:43:20;6.00;99.90
3942;DHT22;1985;48.592;8.850;2024-03-23T16:46:06;6.00;99.90
3942;DHT22;1985;48.592;8.850;2024-03-23T16:48:34;6.10;99.90
3942;DHT22;1985;48.592;8.850;2024-03-23T16:51:01;6.10;99.90
3942;DHT22;1985;48.592;8.850;2024-03-23T16:53:31;6.00;99.90
3942;DHT22;1985;48.592;8.850;2024-03-23T16:56:03;6.00;99.90
3942;DHT22;1985;48.592;8.850;2024-03-23T16:58:30;5.90;99.90
3942;DHT22;1985;48.592;8.850;2024-03-23T17:00:56;5.90;99.90
3942;DHT22;1985;48.592;8.850;2024-03-23T17:03:23;5.90;99.90
3942;DHT22;1985;48.592;8.850;2024-03-23T17:05:50;5.80;99.90
3942;DHT22;1985;48.592;8.850;2024-03-23T17:08:16;5.90;99.90
3942;DHT22;1985;48.592;8.850;2024-03-23T17:10:42;5.70;99.90
3942;DHT22;1985;48.592;8.850;2024-03-23T17:13:08;5.80;99.90
3942;DHT22;1985;48.592;8.850;2024-03-23T17:15:43;5.80;99.90
3942;DHT22;1985;48.592;8.850;2024-03-23T17:18:09;5.80;99.90
3942;DHT22;1985;48.592;8.850;2024-03-23T17:20:35;5.80;99.90
3942;DHT22;1985;48.592;8.850;2024-03-23T17:23:00;5.80;99.90
3942;DHT22;1985;48.592;8.850;2024-03-23T17:25:26;5.40;99.90
3942;DHT22;1985;48.592;8.850;2024-03-23T17:27:52;5.20;99.90
3942;DHT22;1985;48.592;8.850;2024-03-23T17:30:18;5.00;99.90